Time;durP1;ratioP1;P1;durP2;ratioP2;P2;SDS_P1;SDS_P2;PMS_P1;PMS_P2;Temp;Humidity;BMP_temperature;BMP_pressure;BME280_temperature;BME280_humidity;BME280_pressure;Samples;Min_cycle;Max_cycle;Signal;HPM_P1;HPM_P2
2023/03/12 00:00:09;;;;;;;40.83;20.15;;;;;;;6.26;nan;100825.22;4946264;28;20497;-78
2023/03/12 00:02:36;;;;;;;35.20;19.08;;;;;;;6.37;nan;100816.00;4948611;28;20044;-77
2023/03/12 00:05:03;;;;;;;33.30;18.65;;;;;;;6.57;nan;100824.97;4948319;28;20065;-75
2023/03/12 00:07:30;;;;;;;36.45;19.83;;;;;;;6.52;nan;100828.03;4948330;28;20461;-76
2023/03/12 00:09:56;;;;;;;35.63;18.45;;;;;;;6.27;nan;100832.28;4949322;28;20051;-80
2023/03/12 00:12:23;;;;;;;30.73;18.80;;;;;;;6.24;nan;100825.56;4948084;28;20042;-78
2023/03/12 00:14:50;;;;;;;36.13;19.30;;;;;;;6.25;nan;100818.13;4944854;28;20722;-80
2023/03/12 00:17:16;;;;;;;34.35;19.23;;;;;;;6.12;nan;100822.22;4947799;28;20063;-78
2023/03/12 00:19:44;;;;;;;32.03;19.63;;;;;;;6.29;nan;100814.31;4947440;28;20429;-78
2023/03/12 00:22:10;;;;;;;30.70;17.27;;;;;;;6.30;nan;100823.31;4948123;28;20142;-79
2023/03/12 00:24:37;;;;;;;32.50;19.30;;;;;;;6.32;nan;100821.00;4946838;28;20058;-79
2023/03/12 00:27:04;;;;;;;36.45;21.13;;;;;;;6.31;nan;100824.94;4948569;28;20055;-79
2023/03/12 00:29:30;;;;;;;43.58;22.95;;;;;;;6.39;nan;100823.88;4946915;28;20047;-77
2023/03/12 00:31:57;;;;;;;36.58;19.42;;;;;;;6.36;nan;100816.38;4947267;28;20052;-78
2023/03/12 00:34:23;;;;;;;36.97;22.27;;;;;;;6.44;nan;100804.31;4947724;28;20050;-78
2023/03/12 00:36:50;;;;;;;34.22;18.98;;;;;;;6.28;nan;100798.19;4947519;28;20110;-77
2023/03/12 00:39:16;;;;;;;34.38;18.30;;;;;;;6.32;nan;100799.03;4947840;28;20082;-79
2023/03/12 00:41:43;;;;;;;35.30;18.48;;;;;;;6.30;nan;100801.34;4947516;28;20074;-76
2023/03/12 00:44:09;;;;;;;37.70;18.90;;;;;;;6.47;nan;100795.34;4947764;28;20050;-78
2023/03/12 00:46:36;;;;;;;32.90;18.73;;;;;;;6.55;nan;100791.56;4946592;28;20058;-78
2023/03/12 00:49:03;;;;;;;38.83;19.98;;;;;;;6.53;nan;100786.44;4947254;28;20065;-78
2023/03/12 00:51:29;;;;;;;39.00;20.38;;;;;;;6.56;nan;100793.16;4946920;28;20043;-77
2023/03/12 00:53:56;;;;;;;37.60;19.35;;;;;;;6.54;nan;100782.50;4947719;28;20052;-79
2023/03/12 00:56:22;;;;;;;32.92;20.02;;;;;;;6.61;nan;100785.38;4946809;28;20051;-77
2023/03/12 00:58:49;;;;;;;35.83;19.58;;;;;;;6.66;nan;100776.84;4947258;28;20055;-77
2023/03/12 01:01:16;;;;;;;38.80;19.60;;;;;;;6.19;nan;100778.38;4946760;28;20063;-78
2023/03/12 01:03:43;;;;;;;32.63;18.98;;;;;;;6.04;nan;100768.31;4930203;28;20055;-76
2023/03/12 01:06:09;;;;;;;30.58;18.63;;;;;;;6.06;nan;100776.97;4947505;28;20105;-77
2023/03/12 01:08:36;;;;;;;35.25;19.63;;;;;;;6.02;nan;100767.88;4948691;28;20051;-80
2023/03/12 01:11:04;;;;;;;37.65;19.48;;;;;;;6.02;nan;100779.66;4949308;28;20058;-77
2023/03/12 01:13:30;;;;;;;41.00;19.65;;;;;;;5.98;nan;100776.06;4948616;28;20043;-78
2023/03/12 01:15:57;;;;;;;36.20;19.45;;;;;;;6.02;nan;100770.63;4948152;28;20058;-78
2023/03/12 01:18:23;;;;;;;34.53;18.50;;;;;;;5.99;nan;100763.09;4948401;28;20592;-78
2023/03/12 01:20:50;;;;;;;33.65;19.52;;;;;;;6.01;nan;100769.03;4946564;28;20121;-77
2023/03/12 01:23:17;;;;;;;33.38;19.00;;;;;;;5.94;nan;100760.69;4947981;28;20066;-77
2023/03/12 01:25:43;;;;;;;38.92;19.58;;;;;;;5.94;nan;100766.16;4947444;28;20106;-76
2023/03/12 01:28:10;;;;;;;35.35;19.63;;;;;;;5.95;nan;100767.75;4946916;28;20055;-78
2023/03/12 01:30:36;;;;;;;37.97;18.73;;;;;;;5.94;nan;100763.44;4946505;28;20043;-78
2023/03/12 01:33:03;;;;;;;38.13;19.33;;;;;;;5.97;nan;100757.22;4945815;28;20043;-80
2023/03/12 01:35:35;;;;;;;37.80;19.05;;;;;;;5.98;nan;100761.53;4947243;28;20062;-77
2023/03/12 01:38:01;;;;;;;35.88;19.23;;;;;;;6.00;nan;100759.22;4947088;28;20063;-80
2023/03/12 01:40:28;;;;;;;33.00;16.92;;;;;;;6.01;nan;100755.31;4946264;28;20055;-78
2023/03/12 01:42:57;;;;;;;37.53;18.70;;;;;;;6.01;nan;100756.09;4947394;28;20047;-78
2023/03/12 01:46:00;;;;;;;37.70;18.00;;;;;;;6.04;nan;100749.88;4949251;28;20635;-81
2023/03/12 01:48:32;;;;;;;34.30;18.23;;;;;;;6.10;nan;100731.94;4943807;28;20057;-78
2023/03/12 01:51:00;;;;;;;38.95;18.33;;;;;;;6.18;nan;100730.09;4943219;28;20054;-78
2023/03/12 01:53:28;;;;;;;31.90;16.80;;;;;;;6.13;nan;100738.63;4949097;28;20482;-78
2023/03/12 01:55:57;;;;;;;33.75;18.38;;;;;;;6.13;nan;100733.94;4947978;28;20062;-78
2023/03/12 01:58:26;;;;;;;34.22;17.45;;;;;;;6.15;nan;100728.09;4945534;28;20051;-80
2023/03/12 02:00:54;;;;;;;32.90;18.70;;;;;;;6.07;nan;100707.94;4945416;28;20517;-77
2023/03/12 02:03:21;;;;;;;35.65;19.70;;;;;;;6.12;nan;100717.81;4947870;28;20137;-79
2023/03/12 02:05:52;;;;;;;38.03;19.13;;;;;;;6.12;nan;100724.13;4946892;28;20055;-77
2023/03/12 02:08:18;;;;;;;31.50;16.02;;;;;;;6.11;nan;100710.75;4945576;28;20055;-81
2023/03/12 02:10:45;;;;;;;30.52;16.35;;;;;;;6.10;nan;100709.94;4947181;28;20097;-77
2023/03/12 02:13:12;;;;;;;27.27;13.70;;;;;;;6.11;nan;100708.00;4946398;28;20051;-78
2023/03/12 02:15:39;;;;;;;24.13;10.80;;;;;;;6.05;nan;100707.53;4948103;28;20078;-77
2023/03/12 02:18:10;;;;;;;23.70;13.68;;;;;;;6.13;nan;100705.66;4948392;28;20516;-78
2023/03/12 02:20:55;;;;;;;27.10;13.32;;;;;;;6.20;nan;100708.53;4960095;28;20139;-79
2023/03/12 02:23:43;;;;;;;22.10;11.73;;;;;;;6.24;nan;100693.69;4959634;28;20570;-78
2023/03/12 02:26:11;;;;;;;23.90;9.68;;;;;;;6.18;nan;100695.16;4954330;28;20122;-78
2023/03/12 02:28:42;;;;;;;26.30;10.93;;;;;;;6.31;nan;100710.28;4953235;28;20501;-78
2023/03/12 02:31:14;;;;;;;19.63;8.38;;;;;;;6.36;nan;100699.00;4950515;28;20073;-80
2023/03/12 02:33:41;;;;;;;24.55;10.00;;;;;;;6.53;nan;100690.22;4953726;28;20047;-79
2023/03/12 02:36:08;;;;;;;23.23;8.82;;;;;;;6.57;nan;100690.25;4952519;28;20066;-77
2023/03/12 02:38:48;;;;;;;26.60;9.55;;;;;;;6.61;nan;100689.16;4952782;28;20122;-79
2023/03/12 02:41:20;;;;;;;18.38;8.07;;;;;;;6.56;nan;100688.69;4952533;28;20063;-77
2023/03/12 02:44:15;;;;;;;10.05;4.72;;;;;;;6.34;nan;100684.81;4953529;28;20054;-78
2023/03/12 02:46:44;;;;;;;27.33;10.05;;;;;;;6.68;nan;100689.25;4946120;28;20085;-81
2023/03/12 02:49:12;;;;;;;21.15;8.85;;;;;;;6.72;nan;100692.06;4951750;28;20492;-77
2023/03/12 02:51:41;;;;;;;19.10;8.10;;;;;;;6.73;nan;100691.69;4951059;28;20521;-80
2023/03/12 02:54:08;;;;;;;19.95;8.98;;;;;;;6.80;nan;100691.78;4948341;28;20062;-79
2023/03/12 02:56:36;;;;;;;18.85;8.35;;;;;;;6.90;nan;100682.09;4951489;28;20417;-77
2023/03/12 02:59:03;;;;;;;21.50;7.40;;;;;;;6.80;nan;100680.78;4951786;28;20063;-80
2023/03/12 03:01:32;;;;;;;24.30;8.43;;;;;;;6.75;nan;100681.09;4952794;28;20051;-77
2023/03/12 03:04:00;;;;;;;24.10;8.55;;;;;;;6.67;nan;100673.13;4951183;28;20062;-79
2023/03/12 03:06:28;;;;;;;18.58;7.63;;;;;;;6.76;nan;100677.22;4955807;28;20051;-78
2023/03/12 03:08:54;;;;;;;17.98;7.20;;;;;;;6.72;nan;100664.56;4955995;28;20051;-78
2023/03/12 03:11:24;;;;;;;18.27;6.88;;;;;;;6.70;nan;100661.38;4955806;29;20098;-79
2023/03/12 03:13:51;;;;;;;17.27;7.35;;;;;;;6.63;nan;100658.53;4957973;28;20113;-78
2023/03/12 03:16:18;;;;;;;23.13;8.35;;;;;;;6.58;nan;100653.38;4957957;28;20461;-78
2023/03/12 03:18:45;;;;;;;14.05;6.93;;;;;;;6.53;nan;100653.69;4956084;28;20051;-77
2023/03/12 03:21:15;;;;;;;16.58;7.18;;;;;;;6.49;nan;100661.09;4956655;28;20067;-78
2023/03/12 03:23:46;;;;;;;16.48;7.47;;;;;;;6.48;nan;100654.03;4956585;28;20054;-79
2023/03/12 03:26:15;;;;;;;16.67;7.78;;;;;;;6.43;nan;100651.56;4955074;28;20476;-77
2023/03/12 03:28:42;;;;;;;15.65;7.72;;;;;;;6.44;nan;100642.97;4955078;28;20051;-78
2023/03/12 03:31:11;;;;;;;16.75;6.60;;;;;;;6.34;nan;100643.59;4951919;28;20070;-77
2023/03/12 03:33:39;;;;;;;23.15;7.95;;;;;;;6.34;nan;100645.56;4952300;29;20047;-78
2023/03/12 03:36:06;;;;;;;20.98;7.00;;;;;;;6.31;nan;100643.56;4951366;28;20063;-77
2023/03/12 03:38:33;;;;;;;25.90;7.82;;;;;;;6.27;nan;100646.25;4934616;29;20063;-78
2023/03/12 03:41:00;;;;;;;23.00;8.20;;;;;;;6.29;nan;100643.94;4952205;28;20054;-77
2023/03/12 03:43:27;;;;;;;18.42;8.20;;;;;;;6.32;nan;100645.16;4951203;28;20535;-79
2023/03/12 03:46:03;;;;;;;21.00;7.47;;;;;;;6.34;nan;100640.09;4934454;28;20475;-77
2023/03/12 03:48:30;;;;;;;20.58;8.35;;;;;;;6.40;nan;100635.81;4951265;28;20054;-78
2023/03/12 03:51:02;;;;;;;17.67;8.05;;;;;;;6.42;nan;100634.31;4951227;28;20059;-81
2023/03/12 03:53:29;;;;;;;19.88;8.30;;;;;;;6.42;nan;100628.81;4951674;28;20052;-78
2023/03/12 03:55:56;;;;;;;19.58;7.85;;;;;;;6.42;nan;100626.06;4952316;28;20063;-79
2023/03/12 03:58:23;;;;;;;23.13;8.15;;;;;;;6.51;nan;100636.78;4949960;28;20113;-79
2023/03/12 04:00:49;;;;;;;15.40;8.52;;;;;;;6.51;nan;100636.78;4951643;28;20054;-78
2023/03/12 04:03:16;;;;;;;24.77;8.63;;;;;;;6.44;nan;100620.19;4951146;28;20055;-79
2023/03/12 04:05:44;;;;;;;21.88;8.70;;;;;;;6.48;nan;100632.03;4951833;29;20055;-74
2023/03/12 04:08:12;;;;;;;24.08;8.85;;;;;;;6.53;nan;100637.19;4950403;28;20473;-79
2023/03/12 04:10:39;;;;;;;23.80;8.93;;;;;;;6.50;nan;100624.19;4951507;29;20051;-80
2023/03/12 04:13:05;;;;;;;21.88;8.30;;;;;;;6.55;nan;100618.38;4950034;28;20039;-78
2023/03/12 04:15:32;;;;;;;19.48;8.35;;;;;;;6.55;nan;100621.13;4934085;29;20051;-76
2023/03/12 04:17:58;;;;;;;17.38;8.40;;;;;;;6.77;nan;100606.47;4950970;28;20499;-79
2023/03/12 04:20:25;;;;;;;19.50;8.30;;;;;;;6.64;nan;100611.44;4951802;28;20051;-77
2023/03/12 04:22:52;;;;;;;22.58;9.18;;;;;;;6.58;nan;100621.16;4950555;28;20568;-78
2023/03/12 04:25:18;;;;;;;18.73;8.93;;;;;;;6.59;nan;100613.72;4953340;28;20502;-81
2023/03/12 04:27:45;;;;;;;19.92;8.73;;;;;;;6.61;nan;100616.91;4952934;28;20498;-81
2023/03/12 04:30:12;;;;;;;18.75;8.18;;;;;;;6.53;nan;100601.47;4953037;28;20055;-78
2023/03/12 04:32:38;;;;;;;24.52;8.60;;;;;;;6.46;nan;100598.63;4953129;28;20054;-75
2023/03/12 04:35:05;;;;;;;20.90;7.63;;;;;;;6.47;nan;100608.44;4963722;28;20051;-78
2023/03/12 04:37:32;;;;;;;17.88;7.93;;;;;;;6.47;nan;100602.94;4958631;28;20062;-79
2023/03/12 04:40:00;;;;;;;18.60;6.97;;;;;;;6.44;nan;100592.69;4954906;28;20059;-78
2023/03/12 04:42:27;;;;;;;19.00;7.70;;;;;;;6.47;nan;100587.25;4954777;28;20113;-78
2023/03/12 04:44:53;;;;;;;18.40;7.38;;;;;;;6.47;nan;100586.47;4949664;29;20111;-79
2023/03/12 04:47:20;;;;;;;17.95;6.32;;;;;;;6.41;nan;100580.50;4962240;28;20051;-77
2023/03/12 04:49:47;;;;;;;11.93;5.90;;;;;;;6.46;nan;100590.38;4957235;28;20051;-78
2023/03/12 04:52:13;;;;;;;17.95;7.15;;;;;;;6.43;nan;100602.91;4958174;28;20101;-78
2023/03/12 04:54:40;;;;;;;11.43;3.95;;;;;;;6.41;nan;100601.72;4961988;28;20043;-78
2023/03/12 04:57:07;;;;;;;15.52;6.85;;;;;;;6.45;nan;100591.53;4955183;28;20118;-77
2023/03/12 04:59:33;;;;;;;18.92;7.05;;;;;;;6.62;nan;100580.00;4952577;28;20055;-78
2023/03/12 05:02:00;;;;;;;18.70;6.07;;;;;;;6.43;nan;100578.19;4953250;28;20063;-79
2023/03/12 05:04:26;;;;;;;20.38;6.80;;;;;;;6.65;nan;100569.03;4964720;28;20581;-78
2023/03/12 05:06:53;;;;;;;6.78;4.32;;;;;;;6.72;nan;100565.59;4966723;28;20521;-78
2023/03/12 05:09:19;;;;;;;10.40;3.85;;;;;;;6.62;nan;100561.50;4967356;28;20134;-78
2023/03/12 05:11:46;;;;;;;18.05;5.70;;;;;;;6.74;nan;100561.28;4958888;28;20126;-77
2023/03/12 05:14:13;;;;;;;17.60;5.38;;;;;;;6.65;nan;100543.50;4959286;28;20066;-79
2023/03/12 05:16:39;;;;;;;1.48;1.27;;;;;;;6.59;nan;100553.25;4954832;28;20410;-77
2023/03/12 05:19:06;;;;;;;20.48;6.10;;;;;;;6.83;nan;100559.03;4955153;28;20509;-77
2023/03/12 05:21:33;;;;;;;24.65;7.03;;;;;;;6.75;nan;100554.59;4953234;28;20077;-77
2023/03/12 05:23:59;;;;;;;5.47;2.95;;;;;;;6.62;nan;100536.78;4957297;28;20382;-78
2023/03/12 05:26:32;;;;;;;10.80;3.53;;;;;;;6.75;nan;100540.09;4961690;28;20415;-77
2023/03/12 05:29:00;;;;;;;13.88;5.15;;;;;;;6.77;nan;100541.28;4955468;28;20055;-77
2023/03/12 05:31:27;;;;;;;4.50;2.40;;;;;;;6.61;nan;100543.44;4954169;28;20059;-77
2023/03/12 05:33:53;;;;;;;16.77;6.22;;;;;;;6.89;nan;100546.50;4952335;28;20051;-77
2023/03/12 05:36:20;;;;;;;2.10;1.63;;;;;;;6.73;nan;100534.97;4949489;28;20051;-77
2023/03/12 05:38:47;;;;;;;5.22;2.95;;;;;;;6.83;nan;100541.75;4952555;28;20102;-79
2023/03/12 05:41:21;;;;;;;6.78;2.38;;;;;;;6.72;nan;100551.84;4953405;28;20058;-77
2023/03/12 05:43:48;;;;;;;1.92;1.27;;;;;;;6.88;nan;100546.88;4966983;28;20051;-78
2023/03/12 05:46:14;;;;;;;20.65;5.53;;;;;;;7.04;nan;100550.22;4955910;28;20051;-77
2023/03/12 05:48:41;;;;;;;14.18;3.80;;;;;;;7.01;nan;100532.50;4956155;28;20185;-78
2023/03/12 05:51:08;;;;;;;7.78;2.33;;;;;;;6.91;nan;100535.94;4950971;28;20051;-78
2023/03/12 05:53:35;;;;;;;17.95;5.93;;;;;;;7.03;nan;100521.13;4957246;28;20108;-77
2023/03/12 05:56:04;;;;;;;3.88;1.60;;;;;;;6.84;nan;100537.81;4951774;28;20051;-77
2023/03/12 05:58:32;;;;;;;10.07;3.13;;;;;;;7.00;nan;100521.88;4952994;28;20055;-78
2023/03/12 06:00:59;;;;;;;17.48;6.03;;;;;;;7.17;nan;100513.00;4953893;28;20522;-77
2023/03/12 06:03:25;;;;;;;7.35;3.05;;;;;;;7.03;nan;100510.13;4957324;28;20469;-79
2023/03/12 06:05:56;;;;;;;22.73;6.63;;;;;;;7.12;nan;100499.63;4951519;28;20054;-77
2023/03/12 06:08:23;;;;;;;16.55;5.97;;;;;;;7.19;nan;100496.94;4952189;28;20458;-77
2023/03/12 06:10:52;;;;;;;16.58;5.63;;;;;;;7.15;nan;100498.81;4951765;28;20051;-78
2023/03/12 06:13:22;;;;;;;2.78;1.13;;;;;;;6.94;nan;100482.13;4951381;28;20062;-80
2023/03/12 06:15:48;;;;;;;15.95;5.45;;;;;;;7.05;nan;100478.31;4953067;28;20063;-78
2023/03/12 06:18:15;;;;;;;18.75;6.35;;;;;;;7.10;nan;100480.72;4950251;28;20055;-78
2023/03/12 06:20:42;;;;;;;25.20;6.30;;;;;;;7.06;nan;100477.13;4949086;28;20455;-79
2023/03/12 06:23:08;;;;;;;19.63;6.47;;;;;;;6.97;nan;100473.13;4950998;28;20114;-78
2023/03/12 06:25:35;;;;;;;6.10;2.03;;;;;;;6.82;nan;100466.69;4939090;29;20051;-77
2023/03/12 06:28:02;;;;;;;19.48;6.13;;;;;;;7.22;nan;100482.38;4949474;28;20087;-78
2023/03/12 06:30:31;;;;;;;20.33;6.70;;;;;;;7.25;nan;100471.41;4950224;28;20054;-78
2023/03/12 06:32:58;;;;;;;6.97;2.92;;;;;;;7.17;nan;100477.25;4949203;28;20055;-78
2023/03/12 06:35:24;;;;;;;9.57;3.08;;;;;;;7.33;nan;100470.28;4951052;28;20062;-79
2023/03/12 06:37:52;;;;;;;13.82;6.15;;;;;;;7.34;nan;100474.66;4960924;28;20082;-77
2023/03/12 06:40:18;;;;;;;17.15;5.25;;;;;;;7.27;nan;100474.59;4958185;28;20501;-79
2023/03/12 06:42:45;;;;;;;1.48;1.15;;;;;;;7.13;nan;100488.19;4966249;28;20058;-78
2023/03/12 06:45:12;;;;;;;22.30;7.47;;;;;;;7.43;nan;100491.59;4952190;28;20101;-80
2023/03/12 06:47:38;;;;;;;7.70;2.85;;;;;;;7.27;nan;100482.03;4949988;28;20112;-77
2023/03/12 06:50:05;;;;;;;7.30;3.33;;;;;;;7.37;nan;100475.84;4960645;28;20059;-78
2023/03/12 06:52:32;;;;;;;17.30;6.13;;;;;;;7.36;nan;100461.28;4959722;28;20062;-77
2023/03/12 06:54:58;;;;;;;12.30;4.25;;;;;;;7.30;nan;100464.78;4957690;28;20059;-77
2023/03/12 06:57:25;;;;;;;5.50;3.08;;;;;;;7.04;nan;100465.75;4954789;28;20054;-78
2023/03/12 06:59:51;;;;;;;23.33;7.15;;;;;;;7.45;nan;100472.75;4953470;28;20162;-81
2023/03/12 07:02:18;;;;;;;22.25;7.57;;;;;;;7.81;nan;100468.28;4950073;28;20498;-77
2023/03/12 07:04:44;;;;;;;20.60;7.03;;;;;;;7.82;nan;100475.38;4951716;28;20514;-78
2023/03/12 07:07:11;;;;;;;12.13;4.22;;;;;;;7.96;nan;100483.72;4955738;28;20062;-78
2023/03/12 07:09:38;;;;;;;1.38;1.27;;;;;;;7.77;nan;100484.78;4957203;28;20047;-78
2023/03/12 07:12:04;;;;;;;8.38;3.20;;;;;;;7.87;nan;100473.03;4957043;28;20051;-79
2023/03/12 07:14:31;;;;;;;14.50;4.65;;;;;;;8.04;nan;100468.81;4957320;28;20051;-78
2023/03/12 07:17:00;;;;;;;1.88;1.48;;;;;;;7.96;nan;100473.50;4955791;28;20114;-78
2023/03/12 07:19:29;;;;;;;1.30;1.20;;;;;;;8.00;nan;100466.03;4952910;28;20059;-80
2023/03/12 07:21:56;;;;;;;7.85;3.33;;;;;;;7.66;nan;100474.84;4938041;29;20051;-77
2023/03/12 07:24:23;;;;;;;10.45;3.40;;;;;;;7.80;nan;100478.50;4935196;29;20043;-78
2023/03/12 07:26:49;;;;;;;18.33;6.13;;;;;;;12.34;nan;100584.28;4947215;28;20055;-77
2023/03/12 07:29:16;;;;;;;5.35;2.85;;;;;;;10.45;nan;100570.50;4952581;29;20059;-78
2023/03/12 07:31:43;;;;;;;18.27;6.72;;;;;;;10.35;nan;100532.59;4952922;29;20051;-81
2023/03/12 07:34:09;;;;;;;13.68;4.93;;;;;;;9.78;nan;100486.88;4954050;28;20057;-77
2023/03/12 07:36:36;;;;;;;6.75;1.65;;;;;;;8.97;nan;100463.22;4952962;28;20055;-77
2023/03/12 07:39:03;;;;;;;7.32;3.15;;;;;;;9.27;nan;100460.88;4953042;28;20121;-78
2023/03/12 07:41:30;;;;;;;14.88;4.82;;;;;;;9.13;nan;100455.34;4952648;29;20596;-77
2023/03/12 07:43:56;;;;;;;7.97;3.33;;;;;;;9.08;nan;100464.81;4953104;28;20047;-76
2023/03/12 07:46:23;;;;;;;7.63;3.45;;;;;;;9.05;nan;100464.81;4952197;29;20051;-77
2023/03/12 07:48:50;;;;;;;6.32;1.70;;;;;;;8.62;nan;100460.38;4953094;28;20066;-78
2023/03/12 07:51:16;;;;;;;15.77;5.70;;;;;;;8.66;nan;100448.19;4951123;28;20407;-77
2023/03/12 07:53:43;;;;;;;7.50;3.58;;;;;;;8.66;nan;100439.91;4955294;28;20105;-79
2023/03/12 07:56:09;;;;;;;12.43;5.20;;;;;;;8.57;nan;100436.72;4959320;28;20139;-78
2023/03/12 07:58:37;;;;;;;9.02;3.70;;;;;;;8.58;nan;100449.38;4957770;28;20055;-77
2023/03/12 08:01:05;;;;;;;14.30;4.97;;;;;;;9.26;nan;100454.56;4956615;28;20070;-77
2023/03/12 08:03:32;;;;;;;21.42;7.10;;;;;;;9.33;nan;100449.06;4957461;28;20055;-79
2023/03/12 08:06:02;;;;;;;24.80;7.47;;;;;;;8.10;nan;100442.44;4953286;28;20524;-80
2023/03/12 08:08:30;;;;;;;13.65;5.78;;;;;;;8.39;nan;100438.66;4951925;28;20047;-78
2023/03/12 08:10:58;;;;;;;8.48;3.80;;;;;;;8.40;nan;100436.72;4952093;28;20568;-82
2023/03/12 08:13:25;;;;;;;21.13;7.55;;;;;;;9.13;nan;100438.78;4951526;28;20051;-78
2023/03/12 08:15:52;;;;;;;11.30;3.17;;;;;;;8.92;nan;100428.53;4951010;28;20104;-80
2023/03/12 08:18:20;;;;;;;9.30;3.63;;;;;;;8.37;nan;100429.97;4952374;28;20086;-81
2023/03/12 08:20:52;;;;;;;4.38;2.20;;;;;;;8.45;nan;100437.13;4952441;28;20063;-79
2023/03/12 08:23:20;;;;;;;6.30;2.55;;;;;;;8.65;nan;100432.03;4952202;28;20066;-78
2023/03/12 08:25:48;;;;;;;21.80;8.45;;;;;;;8.78;nan;100424.97;4951721;28;20072;-73
2023/03/12 08:28:16;;;;;;;15.63;7.10;;;;;;;8.70;nan;100421.41;4951527;28;20069;-78
2023/03/12 08:30:51;;;;;;;2.40;1.42;;;;;;;8.47;nan;100428.47;4963288;28;20061;-80
2023/03/12 08:33:18;;;;;;;24.17;9.43;;;;;;;8.59;nan;100423.34;4961454;28;20071;-80
2023/03/12 08:35:44;;;;;;;31.35;8.23;;;;;;;8.48;nan;100432.78;4956867;28;20047;-81
2023/03/12 08:38:11;;;;;;;31.38;9.55;;;;;;;8.57;nan;100425.72;4954486;28;20131;-82
2023/03/12 08:40:38;;;;;;;6.47;3.40;;;;;;;9.11;nan;100427.38;4936772;29;20094;-80
2023/03/12 08:43:06;;;;;;;13.32;3.65;;;;;;;8.68;nan;100429.28;4961395;28;20057;-79
2023/03/12 08:45:35;;;;;;;7.55;3.25;;;;;;;8.57;nan;100422.19;4960179;28;20047;-80
2023/03/12 08:48:05;;;;;;;4.43;2.38;;;;;;;8.93;nan;100429.31;4946038;28;20067;-80
2023/03/12 08:50:32;;;;;;;10.95;4.18;;;;;;;9.62;nan;100419.44;4949629;28;21756;-79
2023/03/12 08:52:59;;;;;;;15.48;4.35;;;;;;;9.92;nan;100428.81;4939096;29;20437;-82
2023/03/12 08:55:28;;;;;;;6.35;2.55;;;;;;;9.48;nan;100414.72;4948856;28;20614;-78
2023/03/12 08:57:55;;;;;;;10.65;5.15;;;;;;;9.38;nan;100414.75;4949945;28;20063;-81
2023/03/12 09:00:23;;;;;;;17.27;6.45;;;;;;;9.73;nan;100406.38;4950596;28;20506;-81
2023/03/12 09:02:52;;;;;;;23.60;7.05;;;;;;;9.67;nan;100405.19;4950429;28;20055;-79
2023/03/12 09:05:19;;;;;;;2.38;1.65;;;;;;;8.89;nan;100404.50;4958240;28;20047;-79
2023/03/12 09:07:46;;;;;;;9.07;3.78;;;;;;;8.74;nan;100404.88;4956959;28;20410;-79
2023/03/12 09:10:12;;;;;;;19.20;7.70;;;;;;;8.73;nan;100395.00;4955903;28;20047;-80
2023/03/12 09:12:39;;;;;;;9.43;4.15;;;;;;;8.81;nan;100405.66;4949320;28;20055;-78
2023/03/12 09:15:07;;;;;;;4.22;2.65;;;;;;;9.10;nan;100396.22;4951135;28;20063;-81
2023/03/12 09:17:34;;;;;;;9.18;4.10;;;;;;;8.33;nan;100385.09;4953600;28;20514;-80
2023/03/12 09:20:00;;;;;;;13.32;5.78;;;;;;;8.79;nan;100405.28;4959299;28;20055;-79
2023/03/12 09:22:29;;;;;;;10.13;4.50;;;;;;;8.57;nan;100392.63;4951988;28;20082;-80
2023/03/12 09:24:55;;;;;;;15.95;6.88;;;;;;;8.76;nan;100402.50;4955670;28;20398;-81
2023/03/12 09:27:22;;;;;;;12.60;4.93;;;;;;;9.08;nan;100379.25;4961919;28;20050;-82
2023/03/12 09:29:50;;;;;;;19.85;9.52;;;;;;;9.41;nan;100389.88;4954023;28;20531;-80
2023/03/12 09:32:26;;;;;;;3.78;1.88;;;;;;;9.02;nan;100393.84;4955048;28;20121;-80
2023/03/12 09:34:53;;;;;;;5.35;2.67;;;;;;;9.18;nan;100399.78;4943752;29;20051;-82
2023/03/12 09:37:20;;;;;;;4.43;2.35;;;;;;;8.64;nan;100395.38;4952744;28;20454;-83
2023/03/12 09:39:50;;;;;;;7.55;2.90;;;;;;;8.82;nan;100392.66;4949351;28;20055;-80
2023/03/12 09:42:24;;;;;;;18.88;7.25;;;;;;;8.86;nan;100402.50;4951980;28;20058;-79
2023/03/12 09:44:54;;;;;;;13.15;5.72;;;;;;;8.40;nan;100401.63;4954384;28;20051;-81
2023/03/12 09:47:28;;;;;;;9.43;5.30;;;;;;;8.84;nan;100404.88;4950055;28;20114;-79
2023/03/12 09:50:02;;;;;;;1.65;1.17;;;;;;;8.77;nan;100399.34;4951761;28;20059;-80
2023/03/12 09:52:50;;;;;;;1.23;0.82;;;;;;;8.46;nan;100413.88;4950044;28;20501;-80
2023/03/12 09:55:20;;;;;;;11.93;5.38;;;;;;;8.77;nan;100415.91;4951284;28;20524;-82
2023/03/12 09:57:50;;;;;;;3.95;2.35;;;;;;;8.99;nan;100411.19;4954043;28;20093;-78
2023/03/12 10:00:23;;;;;;;8.50;3.85;;;;;;;8.83;nan;100414.34;4951652;28;20058;-78
2023/03/12 10:03:25;;;;;;;7.90;3.85;;;;;;;8.96;nan;100417.50;4950729;28;20068;-80
2023/03/12 10:06:05;;;;;;;17.50;6.13;;;;;;;9.31;nan;100407.22;4937504;28;20047;-80
2023/03/12 10:08:44;;;;;;;5.53;3.05;;;;;;;9.12;nan;100421.47;4952942;28;20051;-81
2023/03/12 10:11:45;;;;;;;3.85;2.00;;;;;;;8.60;nan;100410.38;4950804;28;20063;-78
2023/03/12 10:14:38;;;;;;;10.88;4.53;;;;;;;8.91;nan;100428.94;4955811;28;20050;-82
2023/03/12 10:17:43;;;;;;;14.55;5.38;;;;;;;8.79;nan;100434.81;4950975;28;20576;-80
2023/03/12 10:20:16;;;;;;;10.85;4.82;;;;;;;8.62;nan;100439.13;4950415;28;20123;-78
2023/03/12 10:22:54;;;;;;;6.28;2.85;;;;;;;8.40;nan;100431.97;4958784;28;20112;-79
2023/03/12 10:25:47;;;;;;;12.85;4.10;;;;;;;10.00;nan;100424.06;4953328;28;20050;-79
2023/03/12 10:28:24;;;;;;;9.80;4.20;;;;;;;9.57;nan;100415.09;4937245;28;20044;-80
2023/03/12 10:30:55;;;;;;;10.02;4.63;;;;;;;8.61;nan;100401.69;4946748;28;20066;-81
2023/03/12 10:33:29;;;;;;;11.45;5.63;;;;;;;8.71;nan;100417.47;4948888;28;20055;-79
2023/03/12 10:35:56;;;;;;;9.32;4.47;;;;;;;9.48;nan;100423.00;4949494;28;20419;-81
2023/03/12 10:38:29;;;;;;;10.93;4.07;;;;;;;9.68;nan;100432.44;4945885;28;20085;-79
2023/03/12 10:40:55;;;;;;;8.90;3.67;;;;;;;9.66;nan;100429.25;4954710;28;20117;-80
2023/03/12 10:43:23;;;;;;;3.72;2.03;;;;;;;10.12;nan;100420.88;4950976;28;20055;-82
2023/03/12 10:46:14;;;;;;;6.10;2.28;;;;;;;9.95;nan;100429.97;4948203;29;20063;-80
2023/03/12 10:48:42;;;;;;;8.63;3.95;;;;;;;9.74;nan;100430.84;4954113;28;20413;-80
2023/03/12 10:51:11;;;;;;;9.02;3.65;;;;;;;10.23;nan;100430.69;4956418;28;20480;-79
2023/03/12 10:53:39;;;;;;;4.80;2.95;;;;;;;10.11;nan;100439.44;4955849;28;20461;-78
2023/03/12 10:56:10;;;;;;;5.78;3.00;;;;;;;9.32;nan;100441.94;4955436;28;20051;-79
2023/03/12 10:58:38;;;;;;;9.43;4.22;;;;;;;10.19;nan;100429.94;4953671;28;20717;-81
2023/03/12 11:01:20;;;;;;;11.73;5.13;;;;;;;9.07;nan;100443.91;4954200;28;20079;-84
2023/03/12 11:03:49;;;;;;;10.30;4.30;;;;;;;9.16;nan;100443.53;4954875;28;20486;-82
2023/03/12 11:06:23;;;;;;;11.02;5.07;;;;;;;9.78;nan;100453.72;4960011;28;20047;-79
2023/03/12 11:09:04;;;;;;;4.70;2.15;;;;;;;10.05;nan;100434.69;4953656;28;20066;-79
2023/03/12 11:11:44;;;;;;;10.18;4.65;;;;;;;10.20;nan;100447.31;4948999;28;20055;-80
2023/03/12 11:14:18;;;;;;;8.68;4.03;;;;;;;10.13;nan;100458.41;4954223;28;20542;-80
2023/03/12 11:16:45;;;;;;;14.40;6.65;;;;;;;10.37;nan;100450.00;4955290;28;20060;-80
2023/03/12 11:19:14;;;;;;;12.10;6.32;;;;;;;10.47;nan;100451.91;4961086;28;20069;-80
2023/03/12 11:21:58;;;;;;;17.10;6.20;;;;;;;10.45;nan;100442.44;4939166;29;20784;-79
2023/03/12 11:24:25;;;;;;;14.35;5.63;;;;;;;10.42;nan;100437.72;4953048;28;20121;-79
2023/03/12 11:26:58;;;;;;;7.13;3.75;;;;;;;10.72;nan;100437.97;4952577;28;20059;-80
2023/03/12 11:29:26;;;;;;;;;;;;;;;10.69;nan;100430.47;4957450;28;20832;-80
2023/03/12 11:32:01;;;;;;;17.63;7.13;;;;;;;10.76;nan;100435.19;4953153;28;19926;-80
2023/03/12 11:34:32;;;;;;;12.18;5.63;;;;;;;10.84;nan;100428.41;4951081;28;20051;-78
2023/03/12 11:37:06;;;;;;;18.48;6.65;;;;;;;10.99;nan;100427.09;4957847;28;20494;-78
2023/03/12 11:39:54;;;;;;;22.13;7.63;;;;;;;11.03;nan;100422.34;4955239;28;20506;-78
2023/03/12 11:42:36;;;;;;;9.52;4.38;;;;;;;11.05;nan;100422.69;4949828;28;20066;-83
2023/03/12 11:45:20;;;;;;;25.58;9.38;;;;;;;11.15;nan;100425.41;4947268;28;20378;-81
2023/03/12 11:47:46;;;;;;;21.00;9.95;;;;;;;10.72;nan;100428.84;4948492;28;20054;-79
2023/03/12 11:50:25;;;;;;;12.82;5.97;;;;;;;11.25;nan;100434.81;4950466;28;20051;-83